Pintail — WDF5177 — position and weather

sailwx.info

Track history (hours):
 
Tides and Currents Weather Stations Pressure Air Temp Water Temp Dewpoint Dewpoint Depression Visibility Wind Speed Wind Dir Waves Ship Positions

Pintail

Owner: Pintail Marine Services, Inc, Friday Harbor, WA. More information available from US FCC via Universal Licensing System and Coast Guard Vessel Documentation Center.

Last reported at 2017-Apr-28 02:00 UTC. Time now 2017-Apr-28 02:26 UTC.
Position N 48°32' W 122°59'.

Length 19 m.

Type: Towing. MMSI: 367460260.

Date/timePositionNaut miles runAvg speedWind from/ knotsBaromVisibWave heightAir tempDewpointWater temp
2017-Apr-28 02:00N 48°32' W 122°59'3 5.9
2017-Apr-28 01:30N 48°33' W 122°54'2 4.4
2017-Apr-28 01:00N 48°33' W 122°51'2 1.4
2017-Apr-27 23:20N 48°31' W 122°50'2 4.1
2017-Apr-27 22:52N 48°33' W 122°51'1 3.6
2017-Apr-27 22:29N 48°34' W 122°52'2 3.7
2017-Apr-27 22:00N 48°34' W 122°55'2 4.5
2017-Apr-27 21:30N 48°32' W 122°58'2 3.1
2017-Apr-27 20:58N 48°32' W 122°60'1 1.1
2017-Apr-27 20:29N 48°32' W 122°60'3 6.2
2017-Apr-27 20:00N 48°33' W 122°55'2 4.7
2017-Apr-27 19:29N 48°34' W 122°52'2 5.2
2017-Apr-27 19:00N 48°32' W 122°49'3 5.0
2017-Apr-27 18:25N 48°32' W 122°45'1 0.1
2017-Apr-26 22:32N 48°31' W 122°47'1 5.7
2017-Apr-26 22:21N 48°32' W 122°48'2 5.0
2017-Apr-26 22:00N 48°32' W 122°50'3 5.3
2017-Apr-26 21:30N 48°34' W 122°53'3 6.8
2017-Apr-26 21:00N 48°32' W 122°57'2 3.8
2017-Apr-26 20:28N 48°32' W 122°60'0 0.2
2017-Apr-26 20:00N 48°32' W 122°60'0 0.0
2017-Apr-26 19:30N 48°32' W 122°60'0 0.0
2017-Apr-26 18:59N 48°32' W 122°60'0 0.0
2017-Apr-26 18:29N 48°32' W 122°60'0 0.2
2017-Apr-26 18:00N 48°32' W 122°60'1 2.0
2017-Apr-26 17:30N 48°32' W 122°59'2 4.9
2017-Apr-26 17:00N 48°33' W 122°55'2 5.0
2017-Apr-26 16:30N 48°34' W 122°52'3 5.2
2017-Apr-26 15:59N 48°32' W 122°49'3 4.6
2017-Apr-26 15:24N 48°32' W 122°45'3 5.8
2017-Apr-26 14:57N 48°32' W 122°41'3 7.2
2017-Apr-26 14:30N 48°31' W 122°37'1 0.6
2017-Apr-26 13:27N 48°31' W 122°36'0 0.0
2017-Apr-26 12:57N 48°31' W 122°36'0 0.0
2017-Apr-26 12:27N 48°31' W 122°36'0 0.0
2017-Apr-26 11:57N 48°31' W 122°36'0 0.0
2017-Apr-26 11:27N 48°31' W 122°36'0 0.0
2017-Apr-26 10:57N 48°31' W 122°36'0 0.0
2017-Apr-26 10:15N 48°31' W 122°36'0 0.0
2017-Apr-26 09:57N 48°31' W 122°36'0 0.0
2017-Apr-26 09:27N 48°31' W 122°36'0 0.0
2017-Apr-26 08:51N 48°31' W 122°36'0 0.0
2017-Apr-26 08:27N 48°31' W 122°36'0 0.0
2017-Apr-26 07:57N 48°31' W 122°36'0 0.0
2017-Apr-26 07:21N 48°31' W 122°36'0 0.0
2017-Apr-26 06:57N 48°31' W 122°36'0 0.0
2017-Apr-26 06:27N 48°31' W 122°36'0 0.0
2017-Apr-26 05:57N 48°31' W 122°36'0 0.0
2017-Apr-26 05:27N 48°31' W 122°36'0 0.0
2017-Apr-26 04:57N 48°31' W 122°36'0 0.0
2017-Apr-26 04:27N 48°31' W 122°36'0 0.0
2017-Apr-26 03:57N 48°31' W 122°36'0 0.0
2017-Apr-26 03:21N 48°31' W 122°36'0 0.0
2017-Apr-26 02:57N 48°31' W 122°36'0 0.0
2017-Apr-26 02:30N 48°31' W 122°36'0 0.0
2017-Apr-26 02:00N 48°31' W 122°36'0 0.0
2017-Apr-26 01:30N 48°31' W 122°36'0 0.0
2017-Apr-26 00:55N 48°31' W 122°36'0 0.0
2017-Apr-26 00:28N 48°31' W 122°36'1 3.0
2017-Apr-26 00:00N 48°31' W 122°38'6 5.8
2017-Apr-25 23:00N 48°31' W 122°47'3 5.1
2017-Apr-25 22:30N 48°33' W 122°51'2 5.0
2017-Apr-25 22:00N 48°34' W 122°53'3 6.2
2017-Apr-25 21:30N 48°32' W 122°57'2 4.2
2017-Apr-25 21:00N 48°32' W 122°60'1 1.0
2017-Apr-25 20:30N 48°32' W 123°00'5 1.0
2017-Apr-25 15:12N 48°37' W 123°00'2 4.2
2017-Apr-25 14:49N 48°36' W 123°01'4 4.8
2017-Apr-25 13:58N 48°32' W 123°00'0 0.2
2017-Apr-25 13:30N 48°32' W 122°60'0 0.0
2017-Apr-25 13:00N 48°32' W 122°60'0 0.0
2017-Apr-25 12:21N 48°32' W 122°60'0 0.0
2017-Apr-25 11:57N 48°32' W 122°60'0 0.0
2017-Apr-25 11:30N 48°32' W 122°60'0 0.0
2017-Apr-25 11:00N 48°32' W 122°60'0 0.0
2017-Apr-25 10:30N 48°32' W 122°60'0 0.0
2017-Apr-25 10:00N 48°32' W 122°60'0 0.0
2017-Apr-25 09:30N 48°32' W 122°60'0 0.0
2017-Apr-25 08:57N 48°32' W 122°60'0 0.0
2017-Apr-25 08:30N 48°32' W 122°60'0 0.0
2017-Apr-25 08:00N 48°32' W 122°60'0 0.0
2017-Apr-25 07:30N 48°32' W 122°60'0 0.0
2017-Apr-25 07:00N 48°32' W 122°60'0 0.0
2017-Apr-25 06:27N 48°32' W 122°60'0 0.0
2017-Apr-25 06:00N 48°32' W 122°60'0 0.0
2017-Apr-25 05:30N 48°32' W 122°60'0 0.0
2017-Apr-25 05:01N 48°32' W 122°60'0 0.0
2017-Apr-25 04:31N 48°32' W 122°60'0 0.0
2017-Apr-25 04:00N 48°32' W 122°60'0 0.0
2017-Apr-25 03:30N 48°32' W 122°60'0 0.0
2017-Apr-25 03:00N 48°32' W 122°60'0 0.0
2017-Apr-25 02:30N 48°32' W 122°60'0 0.0
2017-Apr-25 02:01N 48°32' W 122°60'0 0.0
2017-Apr-25 01:30N 48°32' W 122°60'0 0.0
2017-Apr-25 01:01N 48°32' W 122°60'0 0.0
2017-Apr-25 00:31N 48°32' W 122°60'0 0.0
2017-Apr-25 00:01N 48°32' W 122°60'0 0.0
2017-Apr-24 23:31N 48°32' W 122°60'0 0.0
2017-Apr-24 23:01N 48°32' W 122°60'0 0.0
2017-Apr-24 22:31N 48°32' W 122°60'0 0.0
2017-Apr-24 21:57N 48°32' W 122°60'0 0.1
2017-Apr-24 21:30N 48°32' W 122°60'0 0.9
2017-Apr-24 20:59N 48°32' W 123°00'1 0.9
2017-Apr-24 20:25N 48°32' W 123°00'1 2.4
2017-Apr-24 19:59N 48°32' W 122°59'3 6.0
2017-Apr-24 19:30N 48°33' W 122°55'2 4.5
2017-Apr-24 19:00N 48°34' W 122°51'3 5.6
2017-Apr-24 18:30N 48°32' W 122°48'3 6.0
2017-Apr-24 18:00N 48°32' W 122°43'4 5.9
2017-Apr-24 17:23N 48°31' W 122°38'1 3.1
2017-Apr-24 17:00N 48°31' W 122°36'5 5.0
2017-Apr-24 15:55N 48°32' W 122°44'2 5.4
2017-Apr-24 15:30N 48°32' W 122°48'3 6.2
2017-Apr-24 15:00N 48°34' W 122°52'2 5.0
2017-Apr-24 14:30N 48°33' W 122°55'3 3.3
2017-Apr-24 13:28N 48°32' W 122°60'0 0.0
2017-Apr-24 12:58N 48°32' W 122°60'0 0.0
2017-Apr-24 12:28N 48°32' W 122°60'0 0.0
2017-Apr-24 11:58N 48°32' W 122°60'0 0.0
2017-Apr-24 11:28N 48°32' W 122°60'0 0.0
2017-Apr-24 10:58N 48°32' W 122°60'0 0.0
2017-Apr-24 10:30N 48°32' W 122°60'0 0.0
2017-Apr-24 10:00N 48°32' W 122°60'0 0.0
2017-Apr-24 09:27N 48°32' W 122°60'0 0.0
2017-Apr-24 09:00N 48°32' W 122°60'0 0.0
2017-Apr-24 08:27N 48°32' W 122°60'0 0.0
2017-Apr-24 08:00N 48°32' W 122°60'0 0.0
2017-Apr-24 07:30N 48°32' W 122°60'0 0.0
2017-Apr-24 07:00N 48°32' W 122°60'0 0.0
2017-Apr-24 06:30N 48°32' W 122°60'0 0.0
2017-Apr-24 06:00N 48°32' W 122°60'0 0.0
2017-Apr-24 05:30N 48°32' W 122°60'0 0.0
2017-Apr-24 04:58N 48°32' W 122°60'0 0.0
2017-Apr-24 04:30N 48°32' W 122°60'0 0.0
2017-Apr-24 04:00N 48°32' W 122°60'0 0.0
2017-Apr-24 03:30N 48°32' W 122°60'0 0.0
2017-Apr-24 03:01N 48°32' W 122°60'0 0.0
2017-Apr-24 02:30N 48°32' W 122°60'0 0.0
2017-Apr-24 02:00N 48°32' W 122°60'0 0.0
2017-Apr-24 01:30N 48°32' W 122°60'0 0.0
2017-Apr-24 01:01N 48°32' W 122°60'0 0.0
2017-Apr-24 00:28N 48°32' W 122°60'0 0.0
2017-Apr-24 00:01N 48°32' W 122°60'0 0.0
2017-Apr-23 23:31N 48°32' W 122°60'0 0.0
2017-Apr-23 22:58N 48°32' W 122°60'0 0.0
2017-Apr-23 22:28N 48°32' W 122°60'0 0.0
2017-Apr-23 21:58N 48°32' W 122°60'0 0.0
2017-Apr-23 21:25N 48°32' W 122°60'0 0.0
2017-Apr-23 20:55N 48°32' W 122°60'0 0.0
2017-Apr-23 20:28N 48°32' W 122°60'0 0.0
2017-Apr-23 19:58N 48°32' W 122°60'0 0.0
2017-Apr-23 19:28N 48°32' W 122°60'0 0.0
2017-Apr-23 18:55N 48°32' W 122°60'0 0.0
2017-Apr-23 18:28N 48°32' W 122°60'0 0.0
2017-Apr-23 17:55N 48°32' W 122°60'0 0.0
2017-Apr-23 17:28N 48°32' W 122°60'0 0.0
2017-Apr-23 16:55N 48°32' W 122°60'0 0.0
2017-Apr-23 16:28N 48°32' W 122°60'0 0.0
2017-Apr-23 15:58N 48°32' W 122°60'0 0.0
2017-Apr-23 15:28N 48°32' W 122°60'0 0.0
2017-Apr-23 14:55N 48°32' W 122°60'0 0.0
2017-Apr-23 13:55N 48°32' W 122°60'0 0.0
2017-Apr-23 13:28N 48°32' W 122°60'0 0.0
2017-Apr-23 12:55N 48°32' W 122°60'0 0.0
2017-Apr-23 12:28N 48°32' W 122°60'0 0.0
2017-Apr-23 11:58N 48°32' W 122°60'0 0.0
2017-Apr-23 11:25N 48°32' W 122°60'0 0.0
2017-Apr-23 10:58N 48°32' W 122°60'0 0.0
2017-Apr-23 10:28N 48°32' W 122°60'0 0.0
2017-Apr-23 09:58N 48°32' W 122°60'0 0.0
2017-Apr-23 09:25N 48°32' W 122°60'0 0.0
2017-Apr-23 08:58N 48°32' W 122°60'0 0.0
2017-Apr-23 08:28N 48°32' W 122°60'0 0.0
2017-Apr-23 07:58N 48°32' W 122°60'0 0.0
2017-Apr-23 07:28N 48°32' W 122°60'0 0.0
2017-Apr-23 06:58N 48°32' W 122°60'0 0.0
2017-Apr-23 06:28N 48°32' W 122°60'0 0.0
2017-Apr-23 05:58N 48°32' W 122°60'0 0.0
2017-Apr-23 05:28N 48°32' W 122°60'0 0.0
2017-Apr-23 04:58N 48°32' W 122°60'0 0.0
2017-Apr-23 04:28N 48°32' W 122°60'0 0.0
2017-Apr-23 03:58N 48°32' W 122°60'0 0.0
2017-Apr-23 03:28N 48°32' W 122°60'0 0.0
2017-Apr-23 02:58N 48°32' W 122°60'0 0.0
2017-Apr-23 02:28N 48°32' W 122°60'0 0.0
2017-Apr-23 01:58N 48°32' W 122°60'0 0.0
2017-Apr-23 01:28N 48°32' W 122°60'0 0.0
2017-Apr-23 00:55N 48°32' W 122°60'0 0.0
2017-Apr-23 00:28N 48°32' W 122°60'0 0.0
2017-Apr-22 23:58N 48°32' W 122°60'0 0.0
2017-Apr-22 23:28N 48°32' W 122°60'0 0.0
2017-Apr-22 22:58N 48°32' W 122°60'0 0.0
2017-Apr-22 22:28N 48°32' W 122°60'0 0.0
2017-Apr-22 21:55N 48°32' W 122°60'0 0.0
2017-Apr-22 21:28N 48°32' W 122°60'0 0.0
2017-Apr-22 20:58N 48°32' W 122°60'0 0.0
2017-Apr-22 20:28N 48°32' W 122°60'0 0.0
2017-Apr-22 19:55N 48°32' W 122°60'0 0.0
2017-Apr-22 19:28N 48°32' W 122°60'0 0.0
2017-Apr-22 18:58N 48°32' W 122°60'0 0.0
2017-Apr-22 18:28N 48°32' W 122°60'0 0.0
2017-Apr-22 17:58N 48°32' W 122°60'0 0.0
2017-Apr-22 17:28N 48°32' W 122°60'0 0.0
2017-Apr-22 16:58N 48°32' W 122°60'0 0.0
2017-Apr-22 16:28N 48°32' W 122°60'0 0.0
2017-Apr-22 15:58N 48°32' W 122°60'0 0.0
2017-Apr-22 15:28N 48°32' W 122°60'0 0.0
2017-Apr-22 14:58N 48°32' W 122°60'0 0.0
2017-Apr-22 14:28N 48°32' W 122°60'0 0.0
2017-Apr-22 13:28N 48°32' W 122°60'0 0.0
2017-Apr-22 12:58N 48°32' W 122°60'0 0.0
2017-Apr-22 12:28N 48°32' W 122°60'0 0.0
2017-Apr-22 11:58N 48°32' W 122°60'0 0.0
2017-Apr-22 11:22N 48°32' W 122°60'0 0.0
2017-Apr-22 10:58N 48°32' W 122°60'0 0.0
2017-Apr-22 10:30N 48°32' W 122°60'0 0.0
2017-Apr-22 10:00N 48°32' W 122°60'0 0.0
2017-Apr-22 09:30N 48°32' W 122°60'0 0.0
2017-Apr-22 09:00N 48°32' W 122°60'0 0.0
2017-Apr-22 08:30N 48°32' W 122°60'0 0.0
2017-Apr-22 08:00N 48°32' W 122°60'0 0.0
2017-Apr-22 07:30N 48°32' W 122°60'0 0.0
2017-Apr-22 07:00N 48°32' W 122°60'0 0.0
2017-Apr-22 06:30N 48°32' W 122°60'0 0.0
2017-Apr-22 06:00N 48°32' W 122°60'0 0.0
2017-Apr-22 05:30N 48°32' W 122°60'0 0.0
2017-Apr-22 05:00N 48°32' W 122°60'0 0.0
2017-Apr-22 04:30N 48°32' W 122°60'0 0.0
2017-Apr-22 04:00N 48°32' W 122°60'0 0.0
2017-Apr-22 03:30N 48°32' W 122°60'0 0.0
2017-Apr-22 02:59N 48°32' W 122°60'0 0.0
2017-Apr-22 02:23N 48°32' W 122°60'0 0.0
2017-Apr-22 01:53N 48°32' W 122°60'0 0.0
2017-Apr-22 01:29N 48°32' W 122°60'0 0.0
2017-Apr-22 00:59N 48°32' W 122°60'0 0.0
2017-Apr-22 00:29N 48°32' W 122°60'0 0.0
2017-Apr-21 23:53N 48°32' W 122°60'0 0.0
2017-Apr-21 23:26N 48°32' W 122°60'0 0.2
2017-Apr-21 23:00N 48°32' W 123°00'1 1.0
2017-Apr-21 22:29N 48°32' W 123°00'0 0.0
2017-Apr-21 22:00N 48°32' W 123°00'1 1.0
2017-Apr-21 21:29N 48°32' W 123°00'0 0.0
2017-Apr-21 20:59N 48°32' W 123°00'0 0.0
2017-Apr-21 20:29N 48°32' W 123°00'1 2.8
2017-Apr-21 20:00N 48°32' W 122°58'3 6.3
2017-Apr-21 19:30N 48°34' W 122°54'2 4.7
2017-Apr-21 19:00N 48°33' W 122°51'3 5.4
2017-Apr-21 18:25N 48°32' W 122°46'3 6.0
2017-Apr-21 17:55N 48°32' W 122°42'2 5.9
2017-Apr-21 17:30N 48°31' W 122°38'1 2.1
2017-Apr-21 17:00N 48°31' W 122°36'6 6.2
2017-Apr-21 16:02N 48°32' W 122°45'0 6.0
2017-Apr-21 16:00N 48°32' W 122°46'3 6.0
2017-Apr-21 15:30N 48°33' W 122°50'3 5.8
2017-Apr-21 15:00N 48°34' W 122°54'3 6.4
2017-Apr-21 14:30N 48°32' W 122°58'1 1.4
2017-Apr-21 13:28N 48°32' W 122°60'0 0.0
2017-Apr-21 12:58N 48°32' W 122°60'0 0.0
2017-Apr-21 12:28N 48°32' W 122°60'0 0.0
2017-Apr-21 11:58N 48°32' W 122°60'0 0.0
2017-Apr-21 11:28N 48°32' W 122°60'0 0.0
2017-Apr-21 10:58N 48°32' W 122°60'0 0.0
2017-Apr-21 10:28N 48°32' W 122°60'0 0.0
2017-Apr-21 09:58N 48°32' W 122°60'0 0.0
2017-Apr-21 09:28N 48°32' W 122°60'0 0.0
2017-Apr-21 08:55N 48°32' W 122°60'0 0.0
2017-Apr-21 08:28N 48°32' W 122°60'0 0.0
2017-Apr-21 07:49N 48°32' W 122°60'0 0.0
2017-Apr-21 07:28N 48°32' W 122°60'0 0.0
2017-Apr-21 06:55N 48°32' W 122°60'0 0.0
2017-Apr-21 06:28N 48°32' W 122°60'0 0.0
2017-Apr-21 05:58N 48°32' W 122°60'0 0.0
2017-Apr-21 05:28N 48°32' W 122°60'0 0.0
2017-Apr-21 04:58N 48°32' W 122°60'0 0.0
2017-Apr-21 04:28N 48°32' W 122°60'0 0.0
2017-Apr-21 03:55N 48°32' W 122°60'0 0.0
2017-Apr-21 03:28N 48°32' W 122°60'0 0.0
2017-Apr-21 02:58N 48°32' W 122°60'0 0.0
2017-Apr-21 02:25N 48°32' W 122°60'0 0.0
2017-Apr-21 01:55N 48°32' W 122°60'0 0.0
2017-Apr-21 01:28N 48°32' W 122°60'0 0.0
2017-Apr-21 00:55N 48°32' W 122°60'0 0.0
2017-Apr-21 00:25N 48°32' W 122°60'0 0.0
2017-Apr-20 23:58N 48°32' W 122°60'0 0.0
2017-Apr-20 23:25N 48°32' W 122°60'0 0.0
2017-Apr-20 22:58N 48°32' W 122°60'0 0.0
2017-Apr-20 22:28N 48°32' W 122°60'0 0.0
2017-Apr-20 21:58N 48°32' W 122°60'0 0.0
2017-Apr-20 21:27N 48°32' W 122°60'0 0.1
2017-Apr-20 21:00N 48°32' W 122°60'0 0.1
2017-Apr-20 20:28N 48°32' W 122°60'0 0.0
2017-Apr-20 19:58N 48°32' W 122°60'0 0.0
2017-Apr-20 19:28N 48°32' W 122°60'0 0.0
2017-Apr-20 18:58N 48°32' W 122°60'0 0.0
2017-Apr-20 18:28N 48°32' W 122°60'2 3.3
2017-Apr-20 18:00N 48°33' W 122°58'3 6.0
2017-Apr-20 17:29N 48°34' W 122°54'3 5.8
2017-Apr-20 17:00N 48°33' W 122°50'3 5.9
2017-Apr-20 16:25N 48°32' W 122°45'5 6.3
2017-Apr-20 15:42N 48°31' W 122°38'1 7.2
2017-Apr-20 15:30N 48°31' W 122°36'1 1.4
2017-Apr-20 14:58N 48°31' W 122°36'0 0.0
2017-Apr-20 14:28N 48°31' W 122°36'0 0.0
2017-Apr-20 13:28N 48°31' W 122°36'0 0.0
2017-Apr-20 12:46N 48°31' W 122°36'0 0.0
2017-Apr-20 12:28N 48°31' W 122°36'0 0.0
2017-Apr-20 11:52N 48°31' W 122°36'0 0.0
2017-Apr-20 11:28N 48°31' W 122°36'0 0.0
2017-Apr-20 10:58N 48°31' W 122°36'0 0.0
2017-Apr-20 10:28N 48°31' W 122°36'0 0.0
2017-Apr-20 09:58N 48°31' W 122°36'0 0.0
2017-Apr-20 09:22N 48°31' W 122°36'0 0.0
2017-Apr-20 08:55N 48°31' W 122°36'0 0.0
2017-Apr-20 08:25N 48°31' W 122°36'0 0.0
2017-Apr-20 07:55N 48°31' W 122°36'0 0.0
2017-Apr-20 07:25N 48°31' W 122°36'0 0.0
2017-Apr-20 06:55N 48°31' W 122°36'0 0.0
2017-Apr-20 06:25N 48°31' W 122°36'0 0.0
2017-Apr-20 05:55N 48°31' W 122°36'0 0.0
2017-Apr-20 05:25N 48°31' W 122°36'0 0.0
2017-Apr-20 04:55N 48°31' W 122°36'0 0.0
2017-Apr-20 04:25N 48°31' W 122°36'0 0.0
2017-Apr-20 03:55N 48°31' W 122°36'0 0.0
2017-Apr-20 03:25N 48°31' W 122°36'0 0.4
2017-Apr-20 03:00N 48°31' W 122°36'1 1.4
2017-Apr-20 02:29N 48°31' W 122°37'6 6.1
2017-Apr-20 01:28N 48°32' W 122°46'3 5.5
2017-Apr-20 01:00N 48°32' W 122°50'3 6.0
2017-Apr-20 00:30N 48°34' W 122°53'3 6.0
2017-Apr-20 00:00N 48°33' W 122°57'2 4.5
2017-Apr-19 23:27N 48°32' W 123°00'1 2.3
2017-Apr-19 23:00N 48°32' W 122°59'3 6.0
2017-Apr-19 22:30N 48°34' W 122°55'3 4.8
2017-Apr-19 21:59N 48°33' W 122°51'2 0.7
2017-Apr-19 19:30N 48°31' W 122°50'3 5.8
2017-Apr-19 19:00N 48°34' W 122°52'2 4.7
2017-Apr-19 18:30N 48°33' W 122°55'3 6.1
2017-Apr-19 18:00N 48°32' W 122°60'1 1.0
2017-Apr-19 17:23N 48°32' W 123°00'2 4.5
2017-Apr-19 17:00N 48°33' W 122°58'3 5.9
2017-Apr-19 16:30N 48°34' W 122°54'2 5.0
2017-Apr-19 16:00N 48°33' W 122°51'3 5.4
2017-Apr-19 15:28N 48°32' W 122°46'3 5.9
2017-Apr-19 15:00N 48°32' W 122°42'3 6.2
2017-Apr-19 14:30N 48°31' W 122°38'1 1.0
2017-Apr-19 13:22N 48°31' W 122°36'0 0.0
2017-Apr-19 12:58N 48°31' W 122°36'0 0.0
2017-Apr-19 12:28N 48°31' W 122°36'0 0.0
2017-Apr-19 11:58N 48°31' W 122°36'0 0.0
2017-Apr-19 11:28N 48°31' W 122°36'0 0.0
2017-Apr-19 10:46N 48°31' W 122°36'0 0.0
2017-Apr-19 10:28N 48°31' W 122°36'0 0.0
2017-Apr-19 09:58N 48°31' W 122°36'0 0.0
2017-Apr-19 09:28N 48°31' W 122°36'0 0.0
2017-Apr-19 08:58N 48°31' W 122°36'0 0.0
2017-Apr-19 08:22N 48°31' W 122°36'0 0.0
2017-Apr-19 07:58N 48°31' W 122°36'0 0.0
2017-Apr-19 07:22N 48°31' W 122°36'0 0.0
2017-Apr-19 06:58N 48°31' W 122°36'0 0.0
2017-Apr-19 06:28N 48°31' W 122°36'0 0.0
2017-Apr-19 05:52N 48°31' W 122°36'0 0.0
2017-Apr-19 05:28N 48°31' W 122°36'0 0.0
2017-Apr-19 04:58N 48°31' W 122°36'0 0.0
2017-Apr-19 04:28N 48°31' W 122°36'0 0.0
2017-Apr-19 03:58N 48°31' W 122°36'0 0.0
2017-Apr-19 03:28N 48°31' W 122°36'0 0.0
2017-Apr-19 02:58N 48°31' W 122°36'0 0.0
2017-Apr-19 02:28N 48°31' W 122°36'0 0.0
2017-Apr-19 01:46N 48°31' W 122°36'0 0.0
2017-Apr-19 01:28N 48°31' W 122°36'0 0.0
2017-Apr-19 00:58N 48°31' W 122°36'0 0.0
2017-Apr-19 00:28N 48°31' W 122°36'0 0.0
2017-Apr-18 23:49N 48°31' W 122°36'0 0.0
2017-Apr-18 23:28N 48°31' W 122°36'0 0.0
2017-Apr-18 22:58N 48°31' W 122°36'1 1.5
2017-Apr-18 22:30N 48°31' W 122°37'6 5.7
2017-Apr-18 21:25N 48°32' W 122°46'3 6.2
2017-Apr-18 21:00N 48°32' W 122°50'1 2.7
2017-Apr-18 20:30N 48°33' W 122°51'2 4.7
2017-Apr-18 20:00N 48°34' W 122°54'3 5.9
2017-Apr-18 19:30N 48°32' W 122°57'2 3.3
2017-Apr-18 18:58N 48°32' W 122°60'0 0.0
2017-Apr-18 18:28N 48°32' W 122°60'0 0.0
2017-Apr-18 17:58N 48°32' W 122°60'0 0.0
2017-Apr-18 17:28N 48°32' W 122°60'0 0.0
2017-Apr-18 17:00N 48°32' W 122°60'0 0.8
2017-Apr-18 16:28N 48°32' W 123°00'1 1.0
2017-Apr-18 15:58N 48°32' W 123°00'1 1.0
2017-Apr-18 15:26N 48°32' W 123°00'1 1.0
2017-Apr-18 14:57N 48°32' W 123°00'0 0.2
2017-Apr-18 14:28N 48°32' W 122°60'0 0.0
2017-Apr-18 13:28N 48°32' W 122°60'0 0.0
2017-Apr-18 12:58N 48°32' W 122°60'0 0.0
2017-Apr-18 12:28N 48°32' W 122°60'0 0.0
2017-Apr-18 11:58N 48°32' W 122°60'0 0.0
2017-Apr-18 11:28N 48°32' W 122°60'0 0.0
2017-Apr-18 10:58N 48°32' W 122°60'0 0.0
2017-Apr-18 10:28N 48°32' W 122°60'0 0.0
2017-Apr-18 09:55N 48°32' W 122°60'0 0.0
2017-Apr-18 09:25N 48°32' W 122°60'0 0.0
2017-Apr-18 08:58N 48°32' W 122°60'0 0.0
2017-Apr-18 08:28N 48°32' W 122°60'0 0.0
2017-Apr-18 07:55N 48°32' W 122°60'0 0.0
2017-Apr-18 07:25N 48°32' W 122°60'0 0.0
2017-Apr-18 06:58N 48°32' W 122°60'0 0.0
2017-Apr-18 06:28N 48°32' W 122°60'0 0.0
2017-Apr-18 05:58N 48°32' W 122°60'0 0.0
2017-Apr-18 05:22N 48°32' W 122°60'0 0.0
2017-Apr-18 04:58N 48°32' W 122°60'0 0.0
2017-Apr-18 04:28N 48°32' W 122°60'0 0.0
2017-Apr-18 03:55N 48°32' W 122°60'0 0.0
2017-Apr-18 03:22N 48°32' W 122°60'0 0.0
2017-Apr-18 02:55N 48°32' W 122°60'0 0.0
2017-Apr-18 02:28N 48°32' W 122°60'  
Track history (hours):
 
Tides and Currents Weather Stations Pressure Air Temp Water Temp Dewpoint Dewpoint Depression Visibility Wind Speed Wind Dir Waves Ship Positions

Pintail

Owner: Pintail Marine Services, Inc, Friday Harbor, WA. More information available from US FCC via Universal Licensing System and Coast Guard Vessel Documentation Center.

Last reported at 2017-Apr-28 02:00 UTC. Time now 2017-Apr-28 02:26 UTC.
Position N 48°32' W 122°59'.

Length 19 m.

Type: Towing. MMSI: 367460260.

Date/timePositionNaut miles runAvg speedWind from/ knotsBaromVisibWave heightAir tempDewpointWater temp
2017-Apr-28 02:00N 48°32' W 122°59'3 5.9
2017-Apr-28 01:30N 48°33' W 122°54'2 4.4
2017-Apr-28 01:00N 48°33' W 122°51'2 1.4
2017-Apr-27 23:20N 48°31' W 122°50'2 4.1
2017-Apr-27 22:52N 48°33' W 122°51'1 3.6
2017-Apr-27 22:29N 48°34' W 122°52'2 3.7
2017-Apr-27 22:00N 48°34' W 122°55'2 4.5
2017-Apr-27 21:30N 48°32' W 122°58'2 3.1
2017-Apr-27 20:58N 48°32' W 122°60'1 1.1
2017-Apr-27 20:29N 48°32' W 122°60'3 6.2
2017-Apr-27 20:00N 48°33' W 122°55'2 4.7
2017-Apr-27 19:29N 48°34' W 122°52'2 5.2
2017-Apr-27 19:00N 48°32' W 122°49'3 5.0
2017-Apr-27 18:25N 48°32' W 122°45'1 0.1
2017-Apr-26 22:32N 48°31' W 122°47'1 5.7
2017-Apr-26 22:21N 48°32' W 122°48'2 5.0
2017-Apr-26 22:00N 48°32' W 122°50'3 5.3
2017-Apr-26 21:30N 48°34' W 122°53'3 6.8
2017-Apr-26 21:00N 48°32' W 122°57'2 3.8
2017-Apr-26 20:28N 48°32' W 122°60'0 0.2
2017-Apr-26 20:00N 48°32' W 122°60'0 0.0
2017-Apr-26 19:30N 48°32' W 122°60'0 0.0
2017-Apr-26 18:59N 48°32' W 122°60'0 0.0
2017-Apr-26 18:29N 48°32' W 122°60'0 0.2
2017-Apr-26 18:00N 48°32' W 122°60'1 2.0
2017-Apr-26 17:30N 48°32' W 122°59'2 4.9
2017-Apr-26 17:00N 48°33' W 122°55'2 5.0
2017-Apr-26 16:30N 48°34' W 122°52'3 5.2
2017-Apr-26 15:59N 48°32' W 122°49'3 4.6
2017-Apr-26 15:24N 48°32' W 122°45'3 5.8
2017-Apr-26 14:57N 48°32' W 122°41'3 7.2
2017-Apr-26 14:30N 48°31' W 122°37'1 0.6
2017-Apr-26 13:27N 48°31' W 122°36'0 0.0
2017-Apr-26 12:57N 48°31' W 122°36'0 0.0
2017-Apr-26 12:27N 48°31' W 122°36'0 0.0
2017-Apr-26 11:57N 48°31' W 122°36'0 0.0
2017-Apr-26 11:27N 48°31' W 122°36'0 0.0
2017-Apr-26 10:57N 48°31' W 122°36'0 0.0
2017-Apr-26 10:15N 48°31' W 122°36'0 0.0
2017-Apr-26 09:57N 48°31' W 122°36'0 0.0
2017-Apr-26 09:27N 48°31' W 122°36'0 0.0
2017-Apr-26 08:51N 48°31' W 122°36'0 0.0
2017-Apr-26 08:27N 48°31' W 122°36'0 0.0
2017-Apr-26 07:57N 48°31' W 122°36'0 0.0
2017-Apr-26 07:21N 48°31' W 122°36'0 0.0
2017-Apr-26 06:57N 48°31' W 122°36'0 0.0
2017-Apr-26 06:27N 48°31' W 122°36'0 0.0
2017-Apr-26 05:57N 48°31' W 122°36'0 0.0
2017-Apr-26 05:27N 48°31' W 122°36'0 0.0
2017-Apr-26 04:57N 48°31' W 122°36'0 0.0
2017-Apr-26 04:27N 48°31' W 122°36'0 0.0
2017-Apr-26 03:57N 48°31' W 122°36'0 0.0
2017-Apr-26 03:21N 48°31' W 122°36'0 0.0
2017-Apr-26 02:57N 48°31' W 122°36'0 0.0
2017-Apr-26 02:30N 48°31' W 122°36'0 0.0
2017-Apr-26 02:00N 48°31' W 122°36'0 0.0
2017-Apr-26 01:30N 48°31' W 122°36'0 0.0
2017-Apr-26 00:55N 48°31' W 122°36'0 0.0
2017-Apr-26 00:28N 48°31' W 122°36'1 3.0
2017-Apr-26 00:00N 48°31' W 122°38'6 5.8
2017-Apr-25 23:00N 48°31' W 122°47'3 5.1
2017-Apr-25 22:30N 48°33' W 122°51'2 5.0
2017-Apr-25 22:00N 48°34' W 122°53'3 6.2
2017-Apr-25 21:30N 48°32' W 122°57'2 4.2
2017-Apr-25 21:00N 48°32' W 122°60'1 1.0
2017-Apr-25 20:30N 48°32' W 123°00'5 1.0
2017-Apr-25 15:12N 48°37' W 123°00'2 4.2
2017-Apr-25 14:49N 48°36' W 123°01'4 4.8
2017-Apr-25 13:58N 48°32' W 123°00'0 0.2
2017-Apr-25 13:30N 48°32' W 122°60'0 0.0
2017-Apr-25 13:00N 48°32' W 122°60'0 0.0
2017-Apr-25 12:21N 48°32' W 122°60'0 0.0
2017-Apr-25 11:57N 48°32' W 122°60'0 0.0
2017-Apr-25 11:30N 48°32' W 122°60'0 0.0
2017-Apr-25 11:00N 48°32' W 122°60'0 0.0
2017-Apr-25 10:30N 48°32' W 122°60'0 0.0
2017-Apr-25 10:00N 48°32' W 122°60'0 0.0
2017-Apr-25 09:30N 48°32' W 122°60'0 0.0
2017-Apr-25 08:57N 48°32' W 122°60'0 0.0
2017-Apr-25 08:30N 48°32' W 122°60'0 0.0
2017-Apr-25 08:00N 48°32' W 122°60'0 0.0
2017-Apr-25 07:30N 48°32' W 122°60'0 0.0
2017-Apr-25 07:00N 48°32' W 122°60'0 0.0
2017-Apr-25 06:27N 48°32' W 122°60'0 0.0
2017-Apr-25 06:00N 48°32' W 122°60'0 0.0
2017-Apr-25 05:30N 48°32' W 122°60'0 0.0
2017-Apr-25 05:01N 48°32' W 122°60'0 0.0
2017-Apr-25 04:31N 48°32' W 122°60'0 0.0
2017-Apr-25 04:00N 48°32' W 122°60'0 0.0
2017-Apr-25 03:30N 48°32' W 122°60'0 0.0
2017-Apr-25 03:00N 48°32' W 122°60'0 0.0
2017-Apr-25 02:30N 48°32' W 122°60'0 0.0
2017-Apr-25 02:01N 48°32' W 122°60'0 0.0
2017-Apr-25 01:30N 48°32' W 122°60'0 0.0
2017-Apr-25 01:01N 48°32' W 122°60'0 0.0
2017-Apr-25 00:31N 48°32' W 122°60'0 0.0
2017-Apr-25 00:01N 48°32' W 122°60'0 0.0
2017-Apr-24 23:31N 48°32' W 122°60'0 0.0
2017-Apr-24 23:01N 48°32' W 122°60'0 0.0
2017-Apr-24 22:31N 48°32' W 122°60'0 0.0
2017-Apr-24 21:57N 48°32' W 122°60'0 0.1
2017-Apr-24 21:30N 48°32' W 122°60'0 0.9
2017-Apr-24 20:59N 48°32' W 123°00'1 0.9
2017-Apr-24 20:25N 48°32' W 123°00'1 2.4
2017-Apr-24 19:59N 48°32' W 122°59'3 6.0
2017-Apr-24 19:30N 48°33' W 122°55'2 4.5
2017-Apr-24 19:00N 48°34' W 122°51'3 5.6
2017-Apr-24 18:30N 48°32' W 122°48'3 6.0
2017-Apr-24 18:00N 48°32' W 122°43'4 5.9
2017-Apr-24 17:23N 48°31' W 122°38'1 3.1
2017-Apr-24 17:00N 48°31' W 122°36'5 5.0
2017-Apr-24 15:55N 48°32' W 122°44'2 5.4
2017-Apr-24 15:30N 48°32' W 122°48'3 6.2
2017-Apr-24 15:00N 48°34' W 122°52'2 5.0
2017-Apr-24 14:30N 48°33' W 122°55'3 3.3
2017-Apr-24 13:28N 48°32' W 122°60'0 0.0
2017-Apr-24 12:58N 48°32' W 122°60'0 0.0
2017-Apr-24 12:28N 48°32' W 122°60'0 0.0
2017-Apr-24 11:58N 48°32' W 122°60'0 0.0
2017-Apr-24 11:28N 48°32' W 122°60'0 0.0
2017-Apr-24 10:58N 48°32' W 122°60'0 0.0
2017-Apr-24 10:30N 48°32' W 122°60'0 0.0
2017-Apr-24 10:00N 48°32' W 122°60'0 0.0
2017-Apr-24 09:27N 48°32' W 122°60'0 0.0
2017-Apr-24 09:00N 48°32' W 122°60'0 0.0
2017-Apr-24 08:27N 48°32' W 122°60'0 0.0
2017-Apr-24 08:00N 48°32' W 122°60'0 0.0
2017-Apr-24 07:30N 48°32' W 122°60'0 0.0
2017-Apr-24 07:00N 48°32' W 122°60'0 0.0
2017-Apr-24 06:30N 48°32' W 122°60'0 0.0
2017-Apr-24 06:00N 48°32' W 122°60'0 0.0
2017-Apr-24 05:30N 48°32' W 122°60'0 0.0
2017-Apr-24 04:58N 48°32' W 122°60'0 0.0
2017-Apr-24 04:30N 48°32' W 122°60'0 0.0
2017-Apr-24 04:00N 48°32' W 122°60'0 0.0
2017-Apr-24 03:30N 48°32' W 122°60'0 0.0
2017-Apr-24 03:01N 48°32' W 122°60'0 0.0
2017-Apr-24 02:30N 48°32' W 122°60'0 0.0
2017-Apr-24 02:00N 48°32' W 122°60'0 0.0
2017-Apr-24 01:30N 48°32' W 122°60'0 0.0
2017-Apr-24 01:01N 48°32' W 122°60'0 0.0
2017-Apr-24 00:28N 48°32' W 122°60'0 0.0
2017-Apr-24 00:01N 48°32' W 122°60'0 0.0
2017-Apr-23 23:31N 48°32' W 122°60'0 0.0
2017-Apr-23 22:58N 48°32' W 122°60'0 0.0
2017-Apr-23 22:28N 48°32' W 122°60'0 0.0
2017-Apr-23 21:58N 48°32' W 122°60'0 0.0
2017-Apr-23 21:25N 48°32' W 122°60'0 0.0
2017-Apr-23 20:55N 48°32' W 122°60'0 0.0
2017-Apr-23 20:28N 48°32' W 122°60'0 0.0
2017-Apr-23 19:58N 48°32' W 122°60'0 0.0
2017-Apr-23 19:28N 48°32' W 122°60'0 0.0
2017-Apr-23 18:55N 48°32' W 122°60'0 0.0
2017-Apr-23 18:28N 48°32' W 122°60'0 0.0
2017-Apr-23 17:55N 48°32' W 122°60'0 0.0
2017-Apr-23 17:28N 48°32' W 122°60'0 0.0
2017-Apr-23 16:55N 48°32' W 122°60'0 0.0
2017-Apr-23 16:28N 48°32' W 122°60'0 0.0
2017-Apr-23 15:58N 48°32' W 122°60'0 0.0
2017-Apr-23 15:28N 48°32' W 122°60'0 0.0
2017-Apr-23 14:55N 48°32' W 122°60'0 0.0
2017-Apr-23 13:55N 48°32' W 122°60'0 0.0
2017-Apr-23 13:28N 48°32' W 122°60'0 0.0
2017-Apr-23 12:55N 48°32' W 122°60'0 0.0
2017-Apr-23 12:28N 48°32' W 122°60'0 0.0
2017-Apr-23 11:58N 48°32' W 122°60'0 0.0
2017-Apr-23 11:25N 48°32' W 122°60'0 0.0
2017-Apr-23 10:58N 48°32' W 122°60'0 0.0
2017-Apr-23 10:28N 48°32' W 122°60'0 0.0
2017-Apr-23 09:58N 48°32' W 122°60'0 0.0
2017-Apr-23 09:25N 48°32' W 122°60'0 0.0
2017-Apr-23 08:58N 48°32' W 122°60'0 0.0
2017-Apr-23 08:28N 48°32' W 122°60'0 0.0
2017-Apr-23 07:58N 48°32' W 122°60'0 0.0
2017-Apr-23 07:28N 48°32' W 122°60'0 0.0
2017-Apr-23 06:58N 48°32' W 122°60'0 0.0
2017-Apr-23 06:28N 48°32' W 122°60'0 0.0
2017-Apr-23 05:58N 48°32' W 122°60'0 0.0
2017-Apr-23 05:28N 48°32' W 122°60'0 0.0
2017-Apr-23 04:58N 48°32' W 122°60'0 0.0
2017-Apr-23 04:28N 48°32' W 122°60'0 0.0
2017-Apr-23 03:58N 48°32' W 122°60'0 0.0
2017-Apr-23 03:28N 48°32' W 122°60'0 0.0
2017-Apr-23 02:58N 48°32' W 122°60'0 0.0
2017-Apr-23 02:28N 48°32' W 122°60'0 0.0
2017-Apr-23 01:58N 48°32' W 122°60'0 0.0
2017-Apr-23 01:28N 48°32' W 122°60'0 0.0
2017-Apr-23 00:55N 48°32' W 122°60'0 0.0
2017-Apr-23 00:28N 48°32' W 122°60'0 0.0
2017-Apr-22 23:58N 48°32' W 122°60'0 0.0
2017-Apr-22 23:28N 48°32' W 122°60'0 0.0
2017-Apr-22 22:58N 48°32' W 122°60'0 0.0
2017-Apr-22 22:28N 48°32' W 122°60'0 0.0
2017-Apr-22 21:55N 48°32' W 122°60'0 0.0
2017-Apr-22 21:28N 48°32' W 122°60'0 0.0
2017-Apr-22 20:58N 48°32' W 122°60'0 0.0
2017-Apr-22 20:28N 48°32' W 122°60'0 0.0
2017-Apr-22 19:55N 48°32' W 122°60'0 0.0
2017-Apr-22 19:28N 48°32' W 122°60'0 0.0
2017-Apr-22 18:58N 48°32' W 122°60'0 0.0
2017-Apr-22 18:28N 48°32' W 122°60'0 0.0
2017-Apr-22 17:58N 48°32' W 122°60'0 0.0
2017-Apr-22 17:28N 48°32' W 122°60'0 0.0
2017-Apr-22 16:58N 48°32' W 122°60'0 0.0
2017-Apr-22 16:28N 48°32' W 122°60'0 0.0
2017-Apr-22 15:58N 48°32' W 122°60'0 0.0
2017-Apr-22 15:28N 48°32' W 122°60'0 0.0
2017-Apr-22 14:58N 48°32' W 122°60'0 0.0
2017-Apr-22 14:28N 48°32' W 122°60'0 0.0
2017-Apr-22 13:28N 48°32' W 122°60'0 0.0
2017-Apr-22 12:58N 48°32' W 122°60'0 0.0
2017-Apr-22 12:28N 48°32' W 122°60'0 0.0
2017-Apr-22 11:58N 48°32' W 122°60'0 0.0
2017-Apr-22 11:22N 48°32' W 122°60'0 0.0
2017-Apr-22 10:58N 48°32' W 122°60'0 0.0
2017-Apr-22 10:30N 48°32' W 122°60'0 0.0
2017-Apr-22 10:00N 48°32' W 122°60'0 0.0
2017-Apr-22 09:30N 48°32' W 122°60'0 0.0
2017-Apr-22 09:00N 48°32' W 122°60'0 0.0
2017-Apr-22 08:30N 48°32' W 122°60'0 0.0
2017-Apr-22 08:00N 48°32' W 122°60'0 0.0
2017-Apr-22 07:30N 48°32' W 122°60'0 0.0
2017-Apr-22 07:00N 48°32' W 122°60'0 0.0
2017-Apr-22 06:30N 48°32' W 122°60'0 0.0
2017-Apr-22 06:00N 48°32' W 122°60'0 0.0
2017-Apr-22 05:30N 48°32' W 122°60'0 0.0
2017-Apr-22 05:00N 48°32' W 122°60'0 0.0
2017-Apr-22 04:30N 48°32' W 122°60'0 0.0
2017-Apr-22 04:00N 48°32' W 122°60'0 0.0
2017-Apr-22 03:30N 48°32' W 122°60'0 0.0
2017-Apr-22 02:59N 48°32' W 122°60'0 0.0
2017-Apr-22 02:23N 48°32' W 122°60'0 0.0
2017-Apr-22 01:53N 48°32' W 122°60'0 0.0
2017-Apr-22 01:29N 48°32' W 122°60'0 0.0
2017-Apr-22 00:59N 48°32' W 122°60'0 0.0
2017-Apr-22 00:29N 48°32' W 122°60'0 0.0
2017-Apr-21 23:53N 48°32' W 122°60'0 0.0
2017-Apr-21 23:26N 48°32' W 122°60'0 0.2
2017-Apr-21 23:00N 48°32' W 123°00'1 1.0
2017-Apr-21 22:29N 48°32' W 123°00'0 0.0
2017-Apr-21 22:00N 48°32' W 123°00'1 1.0
2017-Apr-21 21:29N 48°32' W 123°00'0 0.0
2017-Apr-21 20:59N 48°32' W 123°00'0 0.0
2017-Apr-21 20:29N 48°32' W 123°00'1 2.8
2017-Apr-21 20:00N 48°32' W 122°58'3 6.3
2017-Apr-21 19:30N 48°34' W 122°54'2 4.7
2017-Apr-21 19:00N 48°33' W 122°51'3 5.4
2017-Apr-21 18:25N 48°32' W 122°46'3 6.0
2017-Apr-21 17:55N 48°32' W 122°42'2 5.9
2017-Apr-21 17:30N 48°31' W 122°38'1 2.1
2017-Apr-21 17:00N 48°31' W 122°36'6 6.2
2017-Apr-21 16:02N 48°32' W 122°45'0 6.0
2017-Apr-21 16:00N 48°32' W 122°46'3 6.0
2017-Apr-21 15:30N 48°33' W 122°50'3 5.8
2017-Apr-21 15:00N 48°34' W 122°54'3 6.4
2017-Apr-21 14:30N 48°32' W 122°58'1 1.4
2017-Apr-21 13:28N 48°32' W 122°60'0 0.0
2017-Apr-21 12:58N 48°32' W 122°60'0 0.0
2017-Apr-21 12:28N 48°32' W 122°60'0 0.0
2017-Apr-21 11:58N 48°32' W 122°60'0 0.0
2017-Apr-21 11:28N 48°32' W 122°60'0 0.0
2017-Apr-21 10:58N 48°32' W 122°60'0 0.0
2017-Apr-21 10:28N 48°32' W 122°60'0 0.0
2017-Apr-21 09:58N 48°32' W 122°60'0 0.0
2017-Apr-21 09:28N 48°32' W 122°60'0 0.0
2017-Apr-21 08:55N 48°32' W 122°60'0 0.0
2017-Apr-21 08:28N 48°32' W 122°60'0 0.0
2017-Apr-21 07:49N 48°32' W 122°60'0 0.0
2017-Apr-21 07:28N 48°32' W 122°60'0 0.0
2017-Apr-21 06:55N 48°32' W 122°60'0 0.0
2017-Apr-21 06:28N 48°32' W 122°60'0 0.0
2017-Apr-21 05:58N 48°32' W 122°60'0 0.0
2017-Apr-21 05:28N 48°32' W 122°60'0 0.0
2017-Apr-21 04:58N 48°32' W 122°60'0 0.0
2017-Apr-21 04:28N 48°32' W 122°60'0 0.0
2017-Apr-21 03:55N 48°32' W 122°60'0 0.0
2017-Apr-21 03:28N 48°32' W 122°60'0 0.0
2017-Apr-21 02:58N 48°32' W 122°60'0 0.0
2017-Apr-21 02:25N 48°32' W 122°60'0 0.0
2017-Apr-21 01:55N 48°32' W 122°60'0 0.0
2017-Apr-21 01:28N 48°32' W 122°60'0 0.0
2017-Apr-21 00:55N 48°32' W 122°60'0 0.0
2017-Apr-21 00:25N 48°32' W 122°60'0 0.0
2017-Apr-20 23:58N 48°32' W 122°60'0 0.0
2017-Apr-20 23:25N 48°32' W 122°60'0 0.0
2017-Apr-20 22:58N 48°32' W 122°60'0 0.0
2017-Apr-20 22:28N 48°32' W 122°60'0 0.0
2017-Apr-20 21:58N 48°32' W 122°60'0 0.0
2017-Apr-20 21:27N 48°32' W 122°60'0 0.1
2017-Apr-20 21:00N 48°32' W 122°60'0 0.1
2017-Apr-20 20:28N 48°32' W 122°60'0 0.0
2017-Apr-20 19:58N 48°32' W 122°60'0 0.0
2017-Apr-20 19:28N 48°32' W 122°60'0 0.0
2017-Apr-20 18:58N 48°32' W 122°60'0 0.0
2017-Apr-20 18:28N 48°32' W 122°60'2 3.3
2017-Apr-20 18:00N 48°33' W 122°58'3 6.0
2017-Apr-20 17:29N 48°34' W 122°54'3 5.8
2017-Apr-20 17:00N 48°33' W 122°50'3 5.9
2017-Apr-20 16:25N 48°32' W 122°45'5 6.3
2017-Apr-20 15:42N 48°31' W 122°38'1 7.2
2017-Apr-20 15:30N 48°31' W 122°36'1 1.4
2017-Apr-20 14:58N 48°31' W 122°36'0 0.0
2017-Apr-20 14:28N 48°31' W 122°36'0 0.0
2017-Apr-20 13:28N 48°31' W 122°36'0 0.0
2017-Apr-20 12:46N 48°31' W 122°36'0 0.0
2017-Apr-20 12:28N 48°31' W 122°36'0 0.0
2017-Apr-20 11:52N 48°31' W 122°36'0 0.0
2017-Apr-20 11:28N 48°31' W 122°36'0 0.0
2017-Apr-20 10:58N 48°31' W 122°36'0 0.0
2017-Apr-20 10:28N 48°31' W 122°36'0 0.0
2017-Apr-20 09:58N 48°31' W 122°36'0 0.0
2017-Apr-20 09:22N 48°31' W 122°36'0 0.0
2017-Apr-20 08:55N 48°31' W 122°36'0 0.0
2017-Apr-20 08:25N 48°31' W 122°36'0 0.0
2017-Apr-20 07:55N 48°31' W 122°36'0 0.0
2017-Apr-20 07:25N 48°31' W 122°36'0 0.0
2017-Apr-20 06:55N 48°31' W 122°36'0 0.0
2017-Apr-20 06:25N 48°31' W 122°36'0 0.0
2017-Apr-20 05:55N 48°31' W 122°36'0 0.0
2017-Apr-20 05:25N 48°31' W 122°36'0 0.0
2017-Apr-20 04:55N 48°31' W 122°36'0 0.0
2017-Apr-20 04:25N 48°31' W 122°36'0 0.0
2017-Apr-20 03:55N 48°31' W 122°36'0 0.0
2017-Apr-20 03:25N 48°31' W 122°36'0 0.4
2017-Apr-20 03:00N 48°31' W 122°36'1 1.4
2017-Apr-20 02:29N 48°31' W 122°37'6 6.1
2017-Apr-20 01:28N 48°32' W 122°46'3 5.5
2017-Apr-20 01:00N 48°32' W 122°50'3 6.0
2017-Apr-20 00:30N 48°34' W 122°53'3 6.0
2017-Apr-20 00:00N 48°33' W 122°57'2 4.5
2017-Apr-19 23:27N 48°32' W 123°00'1 2.3
2017-Apr-19 23:00N 48°32' W 122°59'3 6.0
2017-Apr-19 22:30N 48°34' W 122°55'3 4.8
2017-Apr-19 21:59N 48°33' W 122°51'2 0.7
2017-Apr-19 19:30N 48°31' W 122°50'3 5.8
2017-Apr-19 19:00N 48°34' W 122°52'2 4.7
2017-Apr-19 18:30N 48°33' W 122°55'3 6.1
2017-Apr-19 18:00N 48°32' W 122°60'1 1.0
2017-Apr-19 17:23N 48°32' W 123°00'2 4.5
2017-Apr-19 17:00N 48°33' W 122°58'3 5.9
2017-Apr-19 16:30N 48°34' W 122°54'2 5.0
2017-Apr-19 16:00N 48°33' W 122°51'3 5.4
2017-Apr-19 15:28N 48°32' W 122°46'3 5.9
2017-Apr-19 15:00N 48°32' W 122°42'3 6.2
2017-Apr-19 14:30N 48°31' W 122°38'1 1.0
2017-Apr-19 13:22N 48°31' W 122°36'0 0.0
2017-Apr-19 12:58N 48°31' W 122°36'0 0.0
2017-Apr-19 12:28N 48°31' W 122°36'0 0.0
2017-Apr-19 11:58N 48°31' W 122°36'0 0.0
2017-Apr-19 11:28N 48°31' W 122°36'0 0.0
2017-Apr-19 10:46N 48°31' W 122°36'0 0.0
2017-Apr-19 10:28N 48°31' W 122°36'0 0.0
2017-Apr-19 09:58N 48°31' W 122°36'0 0.0
2017-Apr-19 09:28N 48°31' W 122°36'0 0.0
2017-Apr-19 08:58N 48°31' W 122°36'0 0.0
2017-Apr-19 08:22N 48°31' W 122°36'0 0.0
2017-Apr-19 07:58N 48°31' W 122°36'0 0.0
2017-Apr-19 07:22N 48°31' W 122°36'0 0.0
2017-Apr-19 06:58N 48°31' W 122°36'0 0.0
2017-Apr-19 06:28N 48°31' W 122°36'0 0.0
2017-Apr-19 05:52N 48°31' W 122°36'0 0.0
2017-Apr-19 05:28N 48°31' W 122°36'0 0.0
2017-Apr-19 04:58N 48°31' W 122°36'0 0.0
2017-Apr-19 04:28N 48°31' W 122°36'0 0.0
2017-Apr-19 03:58N 48°31' W 122°36'0 0.0
2017-Apr-19 03:28N 48°31' W 122°36'0 0.0
2017-Apr-19 02:58N 48°31' W 122°36'0 0.0
2017-Apr-19 02:28N 48°31' W 122°36'0 0.0
2017-Apr-19 01:46N 48°31' W 122°36'0 0.0
2017-Apr-19 01:28N 48°31' W 122°36'0 0.0
2017-Apr-19 00:58N 48°31' W 122°36'0 0.0
2017-Apr-19 00:28N 48°31' W 122°36'0 0.0
2017-Apr-18 23:49N 48°31' W 122°36'0 0.0
2017-Apr-18 23:28N 48°31' W 122°36'0 0.0
2017-Apr-18 22:58N 48°31' W 122°36'1 1.5
2017-Apr-18 22:30N 48°31' W 122°37'6 5.7
2017-Apr-18 21:25N 48°32' W 122°46'3 6.2
2017-Apr-18 21:00N 48°32' W 122°50'1 2.7
2017-Apr-18 20:30N 48°33' W 122°51'2 4.7
2017-Apr-18 20:00N 48°34' W 122°54'3 5.9
2017-Apr-18 19:30N 48°32' W 122°57'2 3.3
2017-Apr-18 18:58N 48°32' W 122°60'0 0.0
2017-Apr-18 18:28N 48°32' W 122°60'0 0.0
2017-Apr-18 17:58N 48°32' W 122°60'0 0.0
2017-Apr-18 17:28N 48°32' W 122°60'0 0.0
2017-Apr-18 17:00N 48°32' W 122°60'0 0.8
2017-Apr-18 16:28N 48°32' W 123°00'1 1.0
2017-Apr-18 15:58N 48°32' W 123°00'1 1.0
2017-Apr-18 15:26N 48°32' W 123°00'1 1.0
2017-Apr-18 14:57N 48°32' W 123°00'0 0.2
2017-Apr-18 14:28N 48°32' W 122°60'0 0.0
2017-Apr-18 13:28N 48°32' W 122°60'0 0.0
2017-Apr-18 12:58N 48°32' W 122°60'0 0.0
2017-Apr-18 12:28N 48°32' W 122°60'0 0.0
2017-Apr-18 11:58N 48°32' W 122°60'0 0.0
2017-Apr-18 11:28N 48°32' W 122°60'0 0.0
2017-Apr-18 10:58N 48°32' W 122°60'0 0.0
2017-Apr-18 10:28N 48°32' W 122°60'0 0.0
2017-Apr-18 09:55N 48°32' W 122°60'0 0.0
2017-Apr-18 09:25N 48°32' W 122°60'0 0.0
2017-Apr-18 08:58N 48°32' W 122°60'0 0.0
2017-Apr-18 08:28N 48°32' W 122°60'0 0.0
2017-Apr-18 07:55N 48°32' W 122°60'0 0.0
2017-Apr-18 07:25N 48°32' W 122°60'0 0.0
2017-Apr-18 06:58N 48°32' W 122°60'0 0.0
2017-Apr-18 06:28N 48°32' W 122°60'0 0.0
2017-Apr-18 05:58N 48°32' W 122°60'0 0.0
2017-Apr-18 05:22N 48°32' W 122°60'0 0.0
2017-Apr-18 04:58N 48°32' W 122°60'0 0.0
2017-Apr-18 04:28N 48°32' W 122°60'0 0.0
2017-Apr-18 03:55N 48°32' W 122°60'0 0.0
2017-Apr-18 03:22N 48°32' W 122°60'0 0.0
2017-Apr-18 02:55N 48°32' W 122°60'0 0.0
2017-Apr-18 02:28N 48°32' W 122°60'  

Dump ship's entire track history